Time;durP1;ratioP1;P1;durP2;ratioP2;P2;SDS_P1;SDS_P2;PMS_P1;PMS_P2;Temp;Humidity;BMP_temperature;BMP_pressure;BME280_temperature;BME280_humidity;BME280_pressure;Samples;Min_cycle;Max_cycle;Signal;HPM_P1;HPM_P2
2023/05/25 00:04:05;;;;;;;;;;;;;;;11.82;53.5918;102747.3;;;;-70
2023/05/25 00:09:05;;;;;;;;;;;;;;;11.83;53.80469;102749.8;;;;-69
2023/05/25 00:13:45;;;;;;;0.2;0.1;;;;;;;;;;;;;-69
2023/05/25 00:14:07;;;;;;;;;;;;;;;11.84;53.72852;102746.8;;;;-70
2023/05/25 00:19:05;;;;;;;;;;;;;;;11.87;53.8877;102742.5;;;;-69
2023/05/25 00:24:07;;;;;;;;;;;;;;;11.83;54.03906;102743;;;;-72
2023/05/25 00:29:05;;;;;;;;;;;;;;;11.8;54.0918;102742.5;;;;-71
2023/05/25 00:34:04;;;;;;;;;;;;;;;11.78;54.04492;102750.7;;;;-69
2023/05/25 00:39:04;;;;;;;;;;;;;;;11.71;54.12695;102743.4;;;;-70
2023/05/25 00:43:47;;;;;;;0.2;0.1;;;;;;;;;;;;;-71
2023/05/25 00:44:04;;;;;;;;;;;;;;;11.67;54.28809;102747.4;;;;-70
2023/05/25 00:49:04;;;;;;;;;;;;;;;11.61;54.19141;102750.6;;;;-69
2023/05/25 01:04:06;;;;;;;;;;;;;;;11.43;54.57031;102765.7;;;;-69
2023/05/25 01:09:08;;;;;;;;;;;;;;;11.35;54.65039;102763.5;;;;-69
2023/05/25 01:13:48;;;;;;;0.2;0.1;;;;;;;;;;;;;-70
2023/05/25 01:14:05;;;;;;;;;;;;;;;11.27;54.875;102765.8;;;;-69
2023/05/25 01:19:09;;;;;;;;;;;;;;;11.25;54.64941;102767.4;;;;-70
2023/05/25 01:24:10;;;;;;;;;;;;;;;11.2;54.94531;102768.4;;;;-70
2023/05/25 01:29:05;;;;;;;;;;;;;;;11.13;54.82324;102775.3;;;;-70
2023/05/25 01:34:06;;;;;;;;;;;;;;;11.1;54.86523;102778.7;;;;-71
2023/05/25 01:39:04;;;;;;;;;;;;;;;11.03;54.87793;102778.1;;;;-70
2023/05/25 01:43:49;;;;;;;0.2;0;;;;;;;;;;;;;-70
2023/05/25 01:44:12;;;;;;;;;;;;;;;10.96;55.19336;102774.3;;;;-69
2023/05/25 01:49:13;;;;;;;;;;;;;;;10.95;54.90234;102784;;;;-69
2023/05/25 01:54:08;;;;;;;;;;;;;;;10.87;54.83496;102783.9;;;;-68
2023/05/25 01:59:05;;;;;;;;;;;;;;;10.84;55.21191;102782.7;;;;-70
2023/05/25 02:04:05;;;;;;;;;;;;;;;10.75;54.94434;102779.9;;;;-70
2023/05/25 02:09:05;;;;;;;;;;;;;;;10.72;55.31836;102792.2;;;;-69
2023/05/25 02:13:50;;;;;;;0.2;0.1;;;;;;;;;;;;;-70
2023/05/25 02:14:04;;;;;;;;;;;;;;;10.68;55.42578;102799.1;;;;-71
2023/05/25 02:19:05;;;;;;;;;;;;;;;10.63;55.18555;102801.3;;;;-70
2023/05/25 02:24:08;;;;;;;;;;;;;;;10.61;55.42773;102801.1;;;;-70
2023/05/25 02:29:08;;;;;;;;;;;;;;;10.6;55.42773;102799.9;;;;-70
2023/05/25 02:34:04;;;;;;;;;;;;;;;10.56;55.53223;102800.6;;;;-69
2023/05/25 02:39:05;;;;;;;;;;;;;;;10.47;55.35254;102792.5;;;;-70
2023/05/25 02:43:58;;;;;;;0.2;0.1;;;;;;;;;;;;;-69
2023/05/25 02:44:09;;;;;;;;;;;;;;;10.42;55.51563;102790.3;;;;-71
2023/05/25 02:49:05;;;;;;;;;;;;;;;10.46;55.19629;102796.7;;;;-70
2023/05/25 02:54:04;;;;;;;;;;;;;;;10.37;55.68652;102803.7;;;;-70
2023/05/25 02:59:04;;;;;;;;;;;;;;;10.34;55.49414;102801.9;;;;-69
2023/05/25 03:04:06;;;;;;;;;;;;;;;10.27;55.45117;102808.1;;;;-70
2023/05/25 03:09:05;;;;;;;;;;;;;;;10.25;55.7832;102816.7;;;;-70
2023/05/25 03:13:55;;;;;;;0.2;0.1;;;;;;;;;;;;;-71
2023/05/25 03:14:05;;;;;;;;;;;;;;;10.22;55.74512;102803.2;;;;-69
2023/05/25 03:19:09;;;;;;;;;;;;;;;10.17;55.52734;102816;;;;-68
2023/05/25 03:24:04;;;;;;;;;;;;;;;10.13;55.69043;102823.6;;;;-69
2023/05/25 03:29:05;;;;;;;;;;;;;;;10.11;55.6084;102817.6;;;;-70
2023/05/25 03:34:05;;;;;;;;;;;;;;;10.04;55.7002;102819.7;;;;-68
2023/05/25 03:39:10;;;;;;;;;;;;;;;10.04;55.67676;102824.6;;;;-69
2023/05/25 03:43:54;;;;;;;0.2;0.1;;;;;;;;;;;;;-71
2023/05/25 03:44:04;;;;;;;;;;;;;;;10.02;55.65332;102824.9;;;;-71
2023/05/25 03:49:05;;;;;;;;;;;;;;;10.03;55.77734;102824.5;;;;-70
2023/05/25 03:54:05;;;;;;;;;;;;;;;9.97;55.79004;102826.4;;;;-70
2023/05/25 03:59:05;;;;;;;;;;;;;;;9.99;55.89453;102832.3;;;;-70
2023/05/25 04:04:10;;;;;;;;;;;;;;;9.99;55.79395;102835.5;;;;-71
2023/05/25 04:09:07;;;;;;;;;;;;;;;9.97;55.64551;102838.1;;;;-71
2023/05/25 04:13:55;;;;;;;0.2;0.1;;;;;;;;;;;;;-71
2023/05/25 04:14:05;;;;;;;;;;;;;;;9.98;55.61426;102832.5;;;;-68
2023/05/25 04:19:05;;;;;;;;;;;;;;;9.99;55.7168;102834.9;;;;-69
2023/05/25 04:24:05;;;;;;;;;;;;;;;10.04;55.57813;102843.7;;;;-69
2023/05/25 04:29:05;;;;;;;;;;;;;;;10.05;55.76855;102846.9;;;;-69
2023/05/25 04:34:04;;;;;;;;;;;;;;;10.09;55.59375;102855.8;;;;-70
2023/05/25 04:39:07;;;;;;;;;;;;;;;10.11;55.66406;102860.4;;;;-72
2023/05/25 04:43:56;;;;;;;0.2;0.1;;;;;;;;;;;;;-70
2023/05/25 04:44:17;;;;;;;;;;;;;;;10.14;55.53516;102862.8;;;;-71
2023/05/25 04:49:04;;;;;;;;;;;;;;;10.22;55.51074;102865.9;;;;-70
2023/05/25 04:54:04;;;;;;;;;;;;;;;10.27;55.4082;102872.2;;;;-69
2023/05/25 04:59:05;;;;;;;;;;;;;;;10.33;55.38184;102871.3;;;;-69
2023/05/25 05:04:06;;;;;;;;;;;;;;;10.36;55.50781;102872.4;;;;-70
2023/05/25 05:09:04;;;;;;;;;;;;;;;10.44;55.32715;102883.3;;;;-69
2023/05/25 05:13:57;;;;;;;0.2;0.1;;;;;;;;;;;;;-69
2023/05/25 05:14:07;;;;;;;;;;;;;;;10.49;55.63477;102884.5;;;;-70
2023/05/25 05:19:04;;;;;;;;;;;;;;;10.6;55.54883;102886.2;;;;-69
2023/05/25 05:24:04;;;;;;;;;;;;;;;10.8;56.20996;102885.8;;;;-70
2023/05/25 05:29:06;;;;;;;;;;;;;;;11.24;55.81934;102888.9;;;;-70
2023/05/25 05:34:04;;;;;;;;;;;;;;;12.07;53.49902;102891.3;;;;-69
2023/05/25 05:39:06;;;;;;;;;;;;;;;12.9;52.91602;102901.5;;;;-71
2023/05/25 05:44:00;;;;;;;0.2;0.1;;;;;;;;;;;;;-71
2023/05/25 05:44:10;;;;;;;;;;;;;;;13.63;51.2627;102903.2;;;;-73
2023/05/25 05:49:04;;;;;;;;;;;;;;;14.24;50.98438;102906.6;;;;-72
2023/05/25 05:54:07;;;;;;;;;;;;;;;14.82;49.99121;102908.4;;;;-69
2023/05/25 05:59:06;;;;;;;;;;;;;;;15.25;50.0752;102910.1;;;;-69
2023/05/25 06:04:04;;;;;;;;;;;;;;;15.76;50.07715;102917;;;;-71
2023/05/25 06:09:05;;;;;;;;;;;;;;;16.27;49.52344;102915.4;;;;-70
2023/05/25 06:14:00;;;;;;;0.3;0.1;;;;;;;;;;;;;-71
2023/05/25 06:14:11;;;;;;;;;;;;;;;16.79;48.8457;102916.6;;;;-71
2023/05/25 06:19:07;;;;;;;;;;;;;;;17.29;48.46973;102920.2;;;;-72
2023/05/25 06:24:04;;;;;;;;;;;;;;;17.72;48.1875;102927.2;;;;-71
2023/05/25 06:29:04;;;;;;;;;;;;;;;17.76;47.60156;102932.5;;;;-71
2023/05/25 06:34:04;;;;;;;;;;;;;;;17.41;50.64941;102936.6;;;;-71
2023/05/25 06:39:04;;;;;;;;;;;;;;;17.12;50.92285;102942.3;;;;-71
2023/05/25 06:44:02;;;;;;;0.3;0.1;;;;;;;;;;;;;-71
2023/05/25 06:44:17;;;;;;;;;;;;;;;17.19;51.57617;102941.4;;;;-71
2023/05/25 06:49:15;;;;;;;;;;;;;;;16.94;52.18066;102944;;;;-70
2023/05/25 06:54:10;;;;;;;;;;;;;;;17;53.07129;102944.2;;;;-71
2023/05/25 06:59:04;;;;;;;;;;;;;;;17.29;52.3125;102950;;;;-71
2023/05/25 07:04:04;;;;;;;;;;;;;;;17.19;52.44824;102959;;;;-71
2023/05/25 07:09:06;;;;;;;;;;;;;;;17.12;52.59863;102962.5;;;;-71
2023/05/25 07:14:04;;;;;;;;;;;;;;;16.98;53.05859;102960.4;;;;-71
2023/05/25 07:14:16;;;;;;;0.2;0;;;;;;;;;;;;;-71
2023/05/25 07:19:04;;;;;;;;;;;;;;;16.87;53.62207;102973.3;;;;-70
2023/05/25 07:24:04;;;;;;;;;;;;;;;16.79;54.32422;102976.8;;;;-71
2023/05/25 07:29:11;;;;;;;;;;;;;;;16.86;54.41309;102976.8;;;;-71
2023/05/25 07:34:05;;;;;;;;;;;;;;;17.36;54.12305;102979.8;;;;-71
2023/05/25 07:39:04;;;;;;;;;;;;;;;17.95;53.08398;102984.9;;;;-70
2023/05/25 07:44:06;;;;;;;;;;;;;;;18.24;51.49512;102993.3;;;;-70
2023/05/25 07:44:18;;;;;;;0.2;0.1;;;;;;;;;;;;;-70
2023/05/25 07:49:07;;;;;;;;;;;;;;;18.39;51.3418;102990.2;;;;-70
2023/05/25 07:54:04;;;;;;;;;;;;;;;18.39;51.47852;102997.8;;;;-71
2023/05/25 07:59:06;;;;;;;;;;;;;;;18.26;51.58691;102998.4;;;;-71
2023/05/25 08:04:04;;;;;;;;;;;;;;;17.99;51.77148;103005;;;;-71
2023/05/25 08:09:06;;;;;;;;;;;;;;;17.74;52.43359;103014.3;;;;-71
2023/05/25 08:14:04;;;;;;;;;;;;;;;17.58;52.75586;103019.1;;;;-71
2023/05/25 08:14:22;;;;;;;0.2;0;;;;;;;;;;;;;-71
2023/05/25 08:19:05;;;;;;;;;;;;;;;17.48;53.26465;103022.9;;;;-71
2023/05/25 08:24:08;;;;;;;;;;;;;;;17.37;53.68262;103026.8;;;;-71
2023/05/25 08:29:07;;;;;;;;;;;;;;;17.32;53.74414;103030.2;;;;-70
2023/05/25 08:34:04;;;;;;;;;;;;;;;17.25;53.93945;103033.4;;;;-73
2023/05/25 08:39:06;;;;;;;;;;;;;;;17.17;54.36035;103036;;;;-71
2023/05/25 08:44:06;;;;;;;;;;;;;;;17.05;54.65137;103037.8;;;;-71
2023/05/25 08:44:16;;;;;;;0.2;0.1;;;;;;;;;;;;;-71
2023/05/25 08:49:08;;;;;;;;;;;;;;;17;54.60059;103042.3;;;;-72
2023/05/25 08:54:06;;;;;;;;;;;;;;;17.01;54.50977;103038.4;;;;-70
2023/05/25 08:59:06;;;;;;;;;;;;;;;17.05;54.66211;103034.6;;;;-72
2023/05/25 09:04:07;;;;;;;;;;;;;;;17.14;55.05762;103035.2;;;;-71
2023/05/25 09:09:06;;;;;;;;;;;;;;;17.16;55.25293;103029.6;;;;-71
2023/05/25 09:14:06;;;;;;;;;;;;;;;17.19;54.98535;103037.9;;;;-72
2023/05/25 09:14:16;;;;;;;0.3;0.1;;;;;;;;;;;;;-72
2023/05/25 09:19:05;;;;;;;;;;;;;;;17.24;55.16016;103038.5;;;;-71
2023/05/25 09:24:06;;;;;;;;;;;;;;;17.45;54.56348;103045.3;;;;-71
2023/05/25 09:29:05;;;;;;;;;;;;;;;17.63;54.23438;103041.5;;;;-71
2023/05/25 09:34:04;;;;;;;;;;;;;;;17.74;53.80664;103043;;;;-73
2023/05/25 09:39:04;;;;;;;;;;;;;;;17.82;53.54395;103053.6;;;;-71
2023/05/25 09:44:04;;;;;;;;;;;;;;;17.81;53.27051;103053.3;;;;-71
2023/05/25 09:44:20;;;;;;;0.2;0.1;;;;;;;;;;;;;-71
2023/05/25 09:49:10;;;;;;;;;;;;;;;17.76;53.08398;103058.7;;;;-71
2023/05/25 09:54:05;;;;;;;;;;;;;;;17.7;52.93945;103059.1;;;;-70
2023/05/25 09:59:07;;;;;;;;;;;;;;;17.68;53.02832;103063.8;;;;-70
2023/05/25 10:04:04;;;;;;;;;;;;;;;17.64;53.00098;103069.7;;;;-69
2023/05/25 10:09:05;;;;;;;;;;;;;;;17.58;53.0166;103075.8;;;;-69
2023/05/25 10:14:05;;;;;;;;;;;;;;;17.55;53.11523;103073.4;;;;-70
2023/05/25 10:14:25;;;;;;;0.2;0;;;;;;;;;;;;;-73
2023/05/25 10:19:10;;;;;;;;;;;;;;;17.54;52.98828;103077.1;;;;-69
2023/05/25 10:24:07;;;;;;;;;;;;;;;17.56;52.81055;103074.7;;;;-70
2023/05/25 10:29:05;;;;;;;;;;;;;;;17.6;52.42969;103079.6;;;;-71
2023/05/25 10:34:07;;;;;;;;;;;;;;;17.7;52.1582;103080.3;;;;-71
2023/05/25 10:39:05;;;;;;;;;;;;;;;17.82;51.93359;103077.9;;;;-71
2023/05/25 10:44:07;;;;;;;;;;;;;;;17.95;51.71094;103074.9;;;;-71
2023/05/25 10:44:23;;;;;;;0.2;0;;;;;;;;;;;;;-71
2023/05/25 10:49:04;;;;;;;;;;;;;;;18.15;51.43848;103069.2;;;;-70
2023/05/25 10:54:05;;;;;;;;;;;;;;;18.45;50.93945;103078.1;;;;-69
2023/05/25 10:59:04;;;;;;;;;;;;;;;18.83;50.50488;103083.5;;;;-71
2023/05/25 11:04:15;;;;;;;;;;;;;;;19.04;49.99414;103081.3;;;;-70
2023/05/25 11:09:05;;;;;;;;;;;;;;;19.2;49.4541;103088.2;;;;-72
2023/05/25 11:14:04;;;;;;;;;;;;;;;19.36;49.29004;103078.2;;;;-69
2023/05/25 11:14:31;;;;;;;0.3;0.1;;;;;;;;;;;;;-70
2023/05/25 11:19:05;;;;;;;;;;;;;;;19.65;48.79688;103075.2;;;;-72
2023/05/25 11:24:07;;;;;;;;;;;;;;;20.04;48.54297;103082.2;;;;-71
2023/05/25 11:29:14;;;;;;;;;;;;;;;20.41;47.95508;103072.5;;;;-75
2023/05/25 11:34:06;;;;;;;;;;;;;;;20.98;47.69531;103063.9;;;;-69
2023/05/25 11:39:05;;;;;;;;;;;;;;;21.21;47.02246;103053.4;;;;-70
2023/05/25 11:44:06;;;;;;;;;;;;;;;21.48;47.55566;103051.7;;;;-70
2023/05/25 11:44:39;;;;;;;0.3;0.1;;;;;;;;;;;;;-70
2023/05/25 11:49:05;;;;;;;;;;;;;;;21.48;46.31836;103052.2;;;;-70
2023/05/25 11:54:06;;;;;;;;;;;;;;;21.54;46.23242;103054.5;;;;-69
2023/05/25 11:59:04;;;;;;;;;;;;;;;21.74;46.29883;103053.6;;;;-70
2023/05/25 12:04:10;;;;;;;;;;;;;;;22.09;46.38184;103055.2;;;;-71
2023/05/25 12:09:05;;;;;;;;;;;;;;;22.63;45.87402;103054.4;;;;-69
2023/05/25 12:14:08;;;;;;;;;;;;;;;22.45;44.58105;103050.3;;;;-70
2023/05/25 12:14:42;;;;;;;0.5;0.1;;;;;;;;;;;;;-69
2023/05/25 12:19:05;;;;;;;;;;;;;;;22.34;44.56934;103053.1;;;;-71
2023/05/25 12:24:04;;;;;;;;;;;;;;;22.63;44.44922;103052.1;;;;-70
2023/05/25 12:29:06;;;;;;;;;;;;;;;23;44.26758;103050.8;;;;-70
2023/05/25 12:34:11;;;;;;;;;;;;;;;22.98;43.29785;103051.6;;;;-70
2023/05/25 12:39:10;;;;;;;;;;;;;;;22.85;42.97559;103050.8;;;;-71
2023/05/25 12:44:04;;;;;;;;;;;;;;;22.72;42.89355;103052.8;;;;-70
2023/05/25 12:44:36;;;;;;;0.3;0.1;;;;;;;;;;;;;-70
2023/05/25 12:49:04;;;;;;;;;;;;;;;22.71;43.64063;103058.3;;;;-70
2023/05/25 12:54:04;;;;;;;;;;;;;;;23.22;42.73438;103048;;;;-70
2023/05/25 12:59:16;;;;;;;;;;;;;;;23.3;42.63867;103050.9;;;;-69
2023/05/25 13:04:04;;;;;;;;;;;;;;;23.43;42.7666;103044.1;;;;-71
2023/05/25 13:09:04;;;;;;;;;;;;;;;23.65;42.91406;103040.5;;;;-70
2023/05/25 13:14:04;;;;;;;;;;;;;;;23.94;42.92969;103041.8;;;;-70
2023/05/25 13:14:40;;;;;;;0.3;0.2;;;;;;;;;;;;;-69
2023/05/25 13:19:07;;;;;;;;;;;;;;;24.04;42.28223;103034.9;;;;-70
2023/05/25 13:24:04;;;;;;;;;;;;;;;24.23;42.21875;103033.1;;;;-69
2023/05/25 13:29:04;;;;;;;;;;;;;;;24.51;42.98438;103031.9;;;;-69
2023/05/25 13:34:07;;;;;;;;;;;;;;;24.78;42.30566;103023.9;;;;-69
2023/05/25 13:39:06;;;;;;;;;;;;;;;24.92;42.7002;103020.2;;;;-70
2023/05/25 13:44:04;;;;;;;;;;;;;;;25.02;42.48926;103018.1;;;;-71
2023/05/25 13:44:43;;;;;;;0.7;0.2;;;;;;;;;;;;;-69
2023/05/25 13:49:07;;;;;;;;;;;;;;;25.17;42.42383;103018;;;;-69
2023/05/25 13:54:04;;;;;;;;;;;;;;;25.36;41.73535;103018;;;;-69
2023/05/25 13:59:09;;;;;;;;;;;;;;;25.5;41.91016;103013.4;;;;-69
2023/05/25 14:04:04;;;;;;;;;;;;;;;25.63;41.14551;103013.8;;;;-69
2023/05/25 14:09:06;;;;;;;;;;;;;;;25.75;41.42383;103008.6;;;;-73
2023/05/25 14:14:06;;;;;;;;;;;;;;;25.86;41.13184;103012.3;;;;-68
2023/05/25 14:14:47;;;;;;;0.3;0.2;;;;;;;;;;;;;-70
2023/05/25 14:19:07;;;;;;;;;;;;;;;25.9;39.75684;103016;;;;-68
2023/05/25 14:24:05;;;;;;;;;;;;;;;25.97;40.35449;103015.7;;;;-70
2023/05/25 14:29:08;;;;;;;;;;;;;;;26.01;40.32324;103021.3;;;;-69
2023/05/25 14:34:07;;;;;;;;;;;;;;;26.08;40.89746;103016.5;;;;-69
2023/05/25 14:39:05;;;;;;;;;;;;;;;26.14;40.41602;103014.1;;;;-70
2023/05/25 14:44:04;;;;;;;;;;;;;;;26.14;39.24414;103011;;;;-69
2023/05/25 14:44:54;;;;;;;0.7;0.4;;;;;;;;;;;;;-69
2023/05/25 14:49:04;;;;;;;;;;;;;;;26.09;38.92676;103014;;;;-70
2023/05/25 14:54:05;;;;;;;;;;;;;;;25.85;39.32324;103009.1;;;;-69
2023/05/25 14:59:04;;;;;;;;;;;;;;;25.69;39.68066;103012.5;;;;-70
2023/05/25 15:04:04;;;;;;;;;;;;;;;25.75;38.61914;103012.9;;;;-69
2023/05/25 15:09:06;;;;;;;;;;;;;;;25.59;39.83398;103014.8;;;;-72
2023/05/25 15:14:04;;;;;;;;;;;;;;;25.55;39.72656;103019;;;;-71
2023/05/25 15:14:56;;;;;;;0.2;0;;;;;;;;;;;;;-69
2023/05/25 15:19:04;;;;;;;;;;;;;;;25.48;39.74316;103023.9;;;;-68
2023/05/25 15:24:04;;;;;;;;;;;;;;;25.26;38.22852;103027.2;;;;-70
2023/05/25 15:29:06;;;;;;;;;;;;;;;25.26;40.03516;103029;;;;-71
2023/05/25 15:34:07;;;;;;;;;;;;;;;25.26;39.65332;103026.3;;;;-70
2023/05/25 15:39:07;;;;;;;;;;;;;;;25.29;39.08984;103022.9;;;;-70
2023/05/25 15:44:07;;;;;;;;;;;;;;;25.27;39.35352;103024.4;;;;-69
2023/05/25 15:45:00;;;;;;;0.2;0;;;;;;;;;;;;;-70
2023/05/25 15:49:10;;;;;;;;;;;;;;;25.06;38.09668;103025.7;;;;-70
2023/05/25 15:54:04;;;;;;;;;;;;;;;24.91;39.4375;103021;;;;-72
2023/05/25 15:59:04;;;;;;;;;;;;;;;24.88;38.23145;103025.1;;;;-71
2023/05/25 16:04:07;;;;;;;;;;;;;;;24.74;37.90723;103023.8;;;;-71
2023/05/25 16:09:04;;;;;;;;;;;;;;;24.56;39.41895;103027.2;;;;-70
2023/05/25 16:14:04;;;;;;;;;;;;;;;24.36;39.64355;103030.5;;;;-69
2023/05/25 16:15:06;;;;;;;0.3;0.2;;;;;;;;;;;;;-70
2023/05/25 16:19:04;;;;;;;;;;;;;;;24.16;38.35547;103030.4;;;;-71
2023/05/25 16:24:05;;;;;;;;;;;;;;;23.95;39.07715;103032.7;;;;-71
2023/05/25 16:29:05;;;;;;;;;;;;;;;23.71;39.84082;103025.8;;;;-76
2023/05/25 16:34:04;;;;;;;;;;;;;;;23.56;39.5498;103036.4;;;;-70
2023/05/25 16:39:05;;;;;;;;;;;;;;;23.36;39.65918;103026.5;;;;-70
2023/05/25 16:44:04;;;;;;;;;;;;;;;23.17;39.56152;103025;;;;-69
2023/05/25 16:45:10;;;;;;;0.5;0.3;;;;;;;;;;;;;-72
2023/05/25 16:49:05;;;;;;;;;;;;;;;22.84;39.55566;103027.6;;;;-74
2023/05/25 16:54:04;;;;;;;;;;;;;;;22.6;39.5918;103027.1;;;;-72
2023/05/25 16:59:05;;;;;;;;;;;;;;;22.41;39.93164;103034.8;;;;-74
2023/05/25 17:04:07;;;;;;;;;;;;;;;22.18;40.11914;103032.2;;;;-73
2023/05/25 17:09:04;;;;;;;;;;;;;;;21.95;39.98242;103030.1;;;;-73
2023/05/25 17:14:07;;;;;;;;;;;;;;;21.75;39.91895;103031.1;;;;-72
2023/05/25 17:15:15;;;;;;;0.7;0.3;;;;;;;;;;;;;-75
2023/05/25 17:19:10;;;;;;;;;;;;;;;21.53;40.0127;103026.6;;;;-72
2023/05/25 17:24:05;;;;;;;;;;;;;;;21.33;40.60449;103026.9;;;;-70
2023/05/25 17:29:05;;;;;;;;;;;;;;;21.16;40.65723;103034.6;;;;-70
2023/05/25 17:34:04;;;;;;;;;;;;;;;20.93;40.7168;103031.1;;;;-72
2023/05/25 17:39:04;;;;;;;;;;;;;;;20.68;41.07227;103045.5;;;;-71
2023/05/25 17:44:04;;;;;;;;;;;;;;;20.41;41.32227;103047.6;;;;-73
2023/05/25 17:45:17;;;;;;;1.5;0.5;;;;;;;;;;;;;-71
2023/05/25 17:49:07;;;;;;;;;;;;;;;20.21;41.52148;103052.5;;;;-70
2023/05/25 17:54:04;;;;;;;;;;;;;;;20.08;42.21777;103049.2;;;;-70
2023/05/25 17:59:05;;;;;;;;;;;;;;;19.92;42.39648;103055.1;;;;-69
2023/05/25 18:04:04;;;;;;;;;;;;;;;19.69;42.55762;103054.7;;;;-71
2023/05/25 18:09:04;;;;;;;;;;;;;;;19.56;42.92188;103054.5;;;;-70
2023/05/25 18:14:06;;;;;;;;;;;;;;;19.31;42.9668;103054.9;;;;-70
2023/05/25 18:15:20;;;;;;;0.2;0.1;;;;;;;;;;;;;-70
2023/05/25 18:19:04;;;;;;;;;;;;;;;19.18;43.18262;103056.2;;;;-70
2023/05/25 18:24:05;;;;;;;;;;;;;;;18.98;43.37988;103060.4;;;;-68
2023/05/25 18:29:07;;;;;;;;;;;;;;;18.92;43.1123;103061.8;;;;-70
2023/05/25 18:34:05;;;;;;;;;;;;;;;18.76;43.5293;103061.5;;;;-69
2023/05/25 18:39:04;;;;;;;;;;;;;;;18.63;43.75488;103062.3;;;;-71
2023/05/25 18:44:04;;;;;;;;;;;;;;;18.54;44.20117;103065.1;;;;-72
2023/05/25 18:45:25;;;;;;;0.5;0.2;;;;;;;;;;;;;-70
2023/05/25 18:49:05;;;;;;;;;;;;;;;18.38;43.13867;103064.7;;;;-70
2023/05/25 18:54:04;;;;;;;;;;;;;;;18.18;43.97266;103066.8;;;;-71
2023/05/25 18:59:04;;;;;;;;;;;;;;;18.02;44.08203;103069.5;;;;-71
2023/05/25 19:04:07;;;;;;;;;;;;;;;17.78;44.06934;103068.4;;;;-71
2023/05/25 19:09:04;;;;;;;;;;;;;;;17.57;43.60645;103073.9;;;;-70
2023/05/25 19:14:04;;;;;;;;;;;;;;;17.33;43.58203;103065.4;;;;-70
2023/05/25 19:15:26;;;;;;;0.2;0;;;;;;;;;;;;;-69
2023/05/25 19:19:04;;;;;;;;;;;;;;;17.1;44.10449;103061.8;;;;-69
2023/05/25 19:24:04;;;;;;;;;;;;;;;16.9;44.48145;103064.9;;;;-69
2023/05/25 19:29:04;;;;;;;;;;;;;;;16.66;44.78613;103067.7;;;;-72
2023/05/25 19:34:05;;;;;;;;;;;;;;;16.46;45.07129;103066.3;;;;-70
2023/05/25 19:39:04;;;;;;;;;;;;;;;16.24;44.94727;103068.8;;;;-69
2023/05/25 19:44:07;;;;;;;;;;;;;;;15.99;45.10352;103079.3;;;;-70
2023/05/25 19:45:29;;;;;;;4.7;0.9;;;;;;;;;;;;;-71
2023/05/25 19:49:05;;;;;;;;;;;;;;;15.79;45.68164;103078.5;;;;-70
2023/05/25 19:54:04;;;;;;;;;;;;;;;15.57;45.68164;103089.3;;;;-70
2023/05/25 19:59:04;;;;;;;;;;;;;;;15.41;46.37793;103089.6;;;;-69
2023/05/25 20:04:05;;;;;;;;;;;;;;;15.24;46.20117;103093.6;;;;-71
2023/05/25 20:09:04;;;;;;;;;;;;;;;15.04;46.75586;103105;;;;-70
2023/05/25 20:14:04;;;;;;;;;;;;;;;14.92;46.73242;103106;;;;-69
2023/05/25 20:15:31;;;;;;;0.2;0;;;;;;;;;;;;;-68
2023/05/25 20:24:04;;;;;;;;;;;;;;;14.63;47.27734;103112.5;;;;-70
2023/05/25 20:29:10;;;;;;;;;;;;;;;14.46;47.70898;103105.6;;;;-69
2023/05/25 20:34:05;;;;;;;;;;;;;;;14.36;47.6084;103119.5;;;;-70
2023/05/25 20:39:04;;;;;;;;;;;;;;;14.17;48.18457;103120.9;;;;-69
2023/05/25 20:44:05;;;;;;;;;;;;;;;14.05;48.41895;103125.3;;;;-68
2023/05/25 20:45:33;;;;;;;0.2;0.1;;;;;;;;;;;;;-70
2023/05/25 20:49:05;;;;;;;;;;;;;;;13.95;48.82422;103129.5;;;;-68
2023/05/25 20:54:04;;;;;;;;;;;;;;;13.81;49.05664;103129.2;;;;-69
2023/05/25 20:59:09;;;;;;;;;;;;;;;13.69;48.94238;103132.8;;;;-72
2023/05/25 21:04:04;;;;;;;;;;;;;;;13.56;49.27637;103136.9;;;;-70
2023/05/25 21:09:04;;;;;;;;;;;;;;;13.42;49.91211;103137;;;;-70
2023/05/25 21:14:05;;;;;;;;;;;;;;;13.32;50.0127;103141.7;;;;-70
2023/05/25 21:15:35;;;;;;;0.2;0.1;;;;;;;;;;;;;-70
2023/05/25 21:19:04;;;;;;;;;;;;;;;13.26;50.36621;103142.6;;;;-71
2023/05/25 21:24:04;;;;;;;;;;;;;;;13.14;50.11621;103143.2;;;;-70
2023/05/25 21:29:04;;;;;;;;;;;;;;;13.05;50.52051;103144.9;;;;-69
2023/05/25 21:34:04;;;;;;;;;;;;;;;12.95;50.49805;103150.2;;;;-70
2023/05/25 21:39:04;;;;;;;;;;;;;;;12.85;51.09277;103155.8;;;;-71
2023/05/25 21:44:07;;;;;;;;;;;;;;;12.79;50.88379;103152.9;;;;-71
2023/05/25 21:45:37;;;;;;;0.2;0.1;;;;;;;;;;;;;-71
2023/05/25 21:49:04;;;;;;;;;;;;;;;12.7;50.8291;103147.2;;;;-68
2023/05/25 21:54:05;;;;;;;;;;;;;;;12.61;51.14355;103151.3;;;;-69
2023/05/25 21:59:04;;;;;;;;;;;;;;;12.53;51.46973;103159.5;;;;-69
2023/05/25 22:04:04;;;;;;;;;;;;;;;12.46;51.03711;103158.8;;;;-69
2023/05/25 22:09:04;;;;;;;;;;;;;;;12.38;51.63086;103152.9;;;;-71
2023/05/25 22:14:05;;;;;;;;;;;;;;;12.31;52.0498;103153.8;;;;-70
2023/05/25 22:15:41;;;;;;;0.2;0.1;;;;;;;;;;;;;-71
2023/05/25 22:19:04;;;;;;;;;;;;;;;12.24;52.06348;103155.3;;;;-70
2023/05/25 22:24:04;;;;;;;;;;;;;;;12.2;51.89063;103158.7;;;;-70
2023/05/25 22:29:04;;;;;;;;;;;;;;;12.13;52.28516;103145.8;;;;-70
2023/05/25 22:34:04;;;;;;;;;;;;;;;12.09;51.98926;103145.2;;;;-70
2023/05/25 22:39:04;;;;;;;;;;;;;;;12.04;52.20703;103151.5;;;;-69
2023/05/25 22:44:06;;;;;;;;;;;;;;;11.96;52.11914;103147.8;;;;-70
2023/05/25 22:45:41;;;;;;;0.6;0.4;;;;;;;;;;;;;-70
2023/05/25 22:49:04;;;;;;;;;;;;;;;11.91;52.67285;103147.2;;;;-69
2023/05/25 22:54:04;;;;;;;;;;;;;;;11.84;52.47559;103139.2;;;;-69
2023/05/25 22:59:04;;;;;;;;;;;;;;;11.81;52.44727;103144.6;;;;-69
2023/05/25 23:04:04;;;;;;;;;;;;;;;11.71;52.88281;103147.9;;;;-69
2023/05/25 23:09:05;;;;;;;;;;;;;;;11.7;52.72656;103148.7;;;;-71
2023/05/25 23:14:06;;;;;;;;;;;;;;;11.63;52.59473;103155.4;;;;-71
2023/05/25 23:15:43;;;;;;;0.2;0;;;;;;;;;;;;;-69
2023/05/25 23:19:04;;;;;;;;;;;;;;;11.57;52.62109;103154.2;;;;-69
2023/05/25 23:24:04;;;;;;;;;;;;;;;11.53;52.88477;103149.5;;;;-69
2023/05/25 23:29:04;;;;;;;;;;;;;;;11.45;52.83105;103147.4;;;;-70
2023/05/25 23:34:04;;;;;;;;;;;;;;;11.38;53.68262;103153.4;;;;-69
2023/05/25 23:39:04;;;;;;;;;;;;;;;11.32;53.54102;103155.8;;;;-68
2023/05/25 23:44:04;;;;;;;;;;;;;;;11.33;53.21777;103146.4;;;;-69
2023/05/25 23:45:44;;;;;;;0.2;0.1;;;;;;;;;;;;;-68
2023/05/25 23:49:04;;;;;;;;;;;;;;;11.26;53.63379;103148.4;;;;-70
2023/05/25 23:54:05;;;;;;;;;;;;;;;11.21;53.49414;103145.4;;;;-69
2023/05/25 23:59:04;;;;;;;;;;;;;;;11.13;53.58398;103149.6;;;;-70
